createdAt,value
2023-01-12T00:00:20.191Z,30.287
2023-01-12T00:05:17.220Z,30.288
2023-01-12T00:10:17.213Z,30.289
2023-01-12T00:15:20.201Z,30.289
2023-01-12T00:20:20.145Z,30.288
2023-01-12T00:25:20.218Z,30.288
2023-01-12T00:30:17.208Z,30.288
2023-01-12T00:35:20.180Z,30.289
2023-01-12T00:40:20.138Z,30.290
2023-01-12T00:45:17.262Z,30.290
2023-01-12T00:50:19.351Z,30.294
2023-01-12T00:55:20.216Z,30.293
2023-01-12T01:00:17.181Z,30.293
2023-01-12T01:05:17.103Z,30.293
2023-01-12T01:10:20.197Z,30.291
2023-01-12T01:15:17.285Z,30.295
2023-01-12T01:20:20.184Z,30.294
2023-01-12T01:25:20.224Z,30.294
2023-01-12T01:30:20.230Z,30.295
2023-01-12T01:35:17.220Z,30.294
2023-01-12T01:40:17.117Z,30.292
2023-01-12T01:45:17.069Z,30.293
2023-01-12T01:50:17.240Z,30.293
2023-01-12T01:55:20.277Z,30.294
2023-01-12T02:00:17.286Z,30.294
2023-01-12T02:05:20.305Z,30.291
2023-01-12T02:10:20.225Z,30.288
2023-01-12T02:15:17.276Z,30.288
2023-01-12T02:20:20.249Z,30.289
2023-01-12T02:25:20.262Z,30.290
2023-01-12T02:30:17.286Z,30.287
2023-01-12T02:35:17.272Z,30.288
2023-01-12T02:40:20.288Z,30.288
2023-01-12T02:45:20.305Z,30.288
2023-01-12T02:50:20.233Z,30.290
2023-01-12T02:55:20.227Z,30.286
2023-01-12T03:00:17.235Z,30.282
2023-01-12T03:05:17.194Z,30.281
2023-01-12T03:10:20.210Z,30.281
2023-01-12T03:15:20.333Z,30.281
2023-01-12T03:20:20.294Z,30.281
2023-01-12T03:25:17.305Z,30.283
2023-01-12T03:30:17.291Z,30.286
2023-01-12T03:35:17.331Z,30.284
2023-01-12T03:40:20.273Z,30.281
2023-01-12T03:45:17.124Z,30.282
2023-01-12T03:50:20.261Z,30.283
2023-01-12T03:55:20.284Z,30.286
2023-01-12T04:00:17.317Z,30.281
2023-01-12T04:05:17.308Z,30.282
2023-01-12T04:10:20.373Z,30.285
2023-01-12T04:15:20.356Z,30.280
2023-01-12T04:20:17.282Z,30.276
2023-01-12T04:25:17.394Z,30.276
2023-01-12T04:30:20.345Z,30.275
2023-01-12T04:35:20.327Z,30.277
2023-01-12T04:40:17.193Z,30.282
2023-01-12T04:45:17.354Z,30.282
2023-01-12T04:50:20.312Z,30.276
2023-01-12T04:55:20.388Z,30.275
2023-01-12T05:00:16.586Z,30.275
2023-01-12T05:05:16.591Z,30.277
2023-01-12T05:10:19.598Z,30.280
2023-01-12T05:15:19.629Z,30.275
2023-01-12T05:20:16.669Z,30.271
2023-01-12T05:25:16.594Z,30.268
2023-01-12T05:30:19.615Z,30.268
2023-01-12T05:35:19.575Z,30.265
2023-01-12T05:40:16.660Z,30.266
2023-01-12T05:45:16.614Z,30.265
2023-01-12T05:50:19.616Z,30.269
2023-01-12T05:55:19.636Z,30.269
2023-01-12T06:00:16.619Z,30.266
2023-01-12T06:05:19.673Z,30.267
2023-01-12T06:10:19.591Z,30.271
2023-01-12T06:15:16.645Z,30.272
2023-01-12T06:20:19.663Z,30.273
2023-01-12T06:25:19.583Z,30.278
2023-01-12T06:30:16.601Z,30.285
2023-01-12T06:35:19.568Z,30.287
2023-01-12T06:40:16.682Z,30.288
2023-01-12T06:45:19.601Z,30.288
2023-01-12T06:50:16.625Z,30.277
2023-01-12T06:55:19.700Z,30.272
2023-01-12T07:00:19.658Z,30.273
2023-01-12T07:05:16.645Z,30.270
2023-01-12T07:10:19.645Z,30.276
2023-01-12T07:15:19.665Z,30.279
2023-01-12T07:20:19.645Z,30.276
2023-01-12T07:25:16.743Z,30.276
2023-01-12T07:30:19.709Z,30.279
2023-01-12T07:35:16.640Z,30.283
2023-01-12T07:40:16.669Z,30.283
2023-01-12T07:45:19.643Z,30.278
2023-01-12T07:50:16.671Z,30.277
2023-01-12T07:55:16.930Z,30.274
2023-01-12T08:00:16.665Z,30.275
2023-01-12T08:05:19.732Z,30.275
2023-01-12T08:10:19.634Z,30.272
2023-01-12T08:15:19.618Z,30.271
2023-01-12T08:20:19.643Z,30.268
2023-01-12T08:25:16.696Z,30.272
2023-01-12T08:30:19.860Z,30.272
2023-01-12T08:35:16.694Z,30.269
2023-01-12T08:40:19.743Z,30.269
2023-01-12T08:45:16.722Z,30.264
2023-01-12T08:50:16.773Z,30.270
2023-01-12T08:55:16.711Z,30.270
2023-01-12T09:00:16.707Z,30.268
2023-01-12T09:05:16.719Z,30.265
2023-01-12T09:10:16.517Z,30.264
2023-01-12T09:15:16.707Z,30.257
2023-01-12T09:20:19.701Z,30.256
2023-01-12T09:25:16.759Z,30.254
2023-01-12T09:30:19.696Z,30.253
2023-01-12T09:35:19.720Z,30.252
2023-01-12T09:40:19.676Z,30.251
2023-01-12T09:45:19.679Z,30.249
2023-01-12T09:50:16.777Z,30.248
2023-01-12T09:55:16.719Z,30.248
2023-01-12T10:00:19.715Z,30.249
2023-01-12T10:05:19.726Z,30.251
2023-01-12T10:10:19.688Z,30.253
2023-01-12T10:15:19.710Z,30.253
2023-01-12T10:20:18.272Z,30.258
2023-01-12T10:25:19.729Z,30.254
2023-01-12T10:30:19.748Z,30.254
2023-01-12T10:35:16.745Z,30.255
2023-01-12T10:40:19.789Z,30.253
2023-01-12T10:45:19.771Z,30.258
2023-01-12T10:50:16.731Z,30.256
2023-01-12T10:55:16.546Z,30.259
2023-01-12T11:00:19.787Z,30.256
2023-01-12T11:05:16.736Z,30.256
2023-01-12T11:10:20.096Z,30.252
2023-01-12T11:15:19.759Z,30.246
2023-01-12T11:20:16.754Z,30.249
2023-01-12T11:25:19.764Z,30.247
2023-01-12T11:30:19.779Z,30.248
2023-01-12T11:35:19.794Z,30.245
2023-01-12T11:40:19.742Z,30.244
2023-01-12T11:45:16.603Z,30.242
2023-01-12T11:50:19.798Z,30.241
2023-01-12T11:55:16.823Z,30.242
2023-01-12T12:00:16.773Z,30.245
2023-01-12T12:05:19.779Z,30.246
2023-01-12T12:10:19.799Z,30.249
2023-01-12T12:15:19.784Z,30.256
2023-01-12T12:20:19.715Z,30.249
2023-01-12T12:25:16.765Z,30.246
2023-01-12T12:30:19.782Z,30.248
2023-01-12T12:35:19.849Z,30.255
2023-01-12T12:40:19.730Z,30.254
2023-01-12T12:45:16.830Z,30.258
2023-01-12T12:50:19.827Z,30.259
2023-01-12T12:55:19.829Z,30.259
2023-01-12T13:00:19.836Z,30.259
2023-01-12T13:05:16.846Z,30.261
2023-01-12T13:10:19.771Z,30.253
2023-01-12T13:15:16.839Z,30.251
2023-01-12T13:20:25.753Z,30.252
2023-01-12T13:25:16.808Z,30.254
2023-01-12T13:30:19.863Z,30.258
2023-01-12T13:35:19.801Z,30.251
2023-01-12T13:40:16.916Z,30.255
2023-01-12T13:45:20.008Z,30.253
2023-01-12T13:50:16.845Z,30.251
2023-01-12T13:55:19.911Z,30.252
2023-01-12T14:00:19.817Z,30.254
2023-01-12T14:05:16.900Z,30.250
2023-01-12T14:10:19.863Z,30.252
2023-01-12T14:15:19.859Z,30.249
2023-01-12T14:20:16.905Z,30.247
2023-01-12T14:25:19.814Z,30.248
2023-01-12T14:30:19.827Z,30.248
2023-01-12T14:35:19.864Z,30.248
2023-01-12T14:40:16.888Z,30.248
2023-01-12T14:45:19.852Z,30.251
2023-01-12T14:50:19.825Z,30.249
2023-01-12T14:55:19.865Z,30.251
2023-01-12T15:00:19.834Z,30.254
2023-01-12T15:05:19.890Z,30.258
2023-01-12T15:10:19.809Z,30.256
2023-01-12T15:15:16.931Z,30.258
2023-01-12T15:20:19.893Z,30.252
2023-01-12T15:25:19.953Z,30.253
2023-01-12T15:30:19.816Z,30.255
2023-01-12T15:35:16.933Z,30.255
2023-01-12T15:40:19.901Z,30.255
2023-01-12T15:45:19.883Z,30.252
2023-01-12T15:50:19.821Z,30.249
2023-01-12T15:55:19.910Z,30.244
2023-01-12T16:00:19.873Z,30.241
2023-01-12T16:05:16.983Z,30.233
2023-01-12T16:10:16.927Z,30.230
2023-01-12T16:15:16.915Z,30.224
2023-01-12T16:20:19.885Z,30.218
2023-01-12T16:25:19.920Z,30.215
2023-01-12T16:30:19.883Z,30.211
2023-01-12T16:35:16.945Z,30.211
2023-01-12T16:40:16.961Z,30.203
2023-01-12T16:45:19.908Z,30.200
2023-01-12T16:50:19.926Z,30.195
2023-01-12T16:55:16.908Z,30.193
2023-01-12T17:00:16.971Z,30.191
2023-01-12T17:05:16.912Z,30.186
2023-01-12T17:10:19.887Z,30.181
2023-01-12T17:15:16.956Z,30.179
2023-01-12T17:20:19.959Z,30.174
2023-01-12T17:25:16.931Z,30.171
2023-01-12T17:30:19.936Z,30.169
2023-01-12T17:35:19.921Z,30.165
2023-01-12T17:40:19.962Z,30.164
2023-01-12T17:45:19.933Z,30.163
2023-01-12T17:50:19.917Z,30.158
2023-01-12T17:55:16.930Z,30.151
2023-01-12T18:00:20.148Z,30.151
2023-01-12T18:05:19.965Z,30.149
2023-01-12T18:10:19.964Z,30.144
2023-01-12T18:15:16.926Z,30.139
2023-01-12T18:20:20.057Z,30.138
2023-01-12T18:25:19.999Z,30.133
2023-01-12T18:30:19.969Z,30.130
2023-01-12T18:35:16.981Z,30.131
2023-01-12T18:40:20.002Z,30.129
2023-01-12T18:45:20.009Z,30.130
2023-01-12T18:50:19.943Z,30.128
2023-01-12T18:55:16.975Z,30.127
2023-01-12T19:00:20.043Z,30.125
2023-01-12T19:05:19.975Z,30.126
2023-01-12T19:10:17.006Z,30.128
2023-01-12T19:15:19.985Z,30.127
2023-01-12T19:20:19.974Z,30.127
2023-01-12T19:25:17.005Z,30.127
2023-01-12T19:30:19.960Z,30.123
2023-01-12T19:35:16.998Z,30.122
2023-01-12T19:40:19.951Z,30.118
2023-01-12T19:45:19.997Z,30.112
2023-01-12T19:50:17.046Z,30.112
2023-01-12T19:55:19.972Z,30.111
2023-01-12T20:00:20.024Z,30.104
2023-01-12T20:05:17.034Z,30.102
2023-01-12T20:10:19.999Z,30.103
2023-01-12T20:15:19.996Z,30.106
2023-01-12T20:20:19.978Z,30.104
2023-01-12T20:25:16.962Z,30.107
2023-01-12T20:30:32.005Z,30.103
2023-01-12T20:35:20.000Z,30.099
2023-01-12T20:40:20.010Z,30.096
2023-01-12T20:45:20.031Z,30.095
2023-01-12T20:50:20.018Z,30.090
2023-01-12T20:55:17.120Z,30.088
2023-01-12T21:00:20.106Z,30.085
2023-01-12T21:05:20.100Z,30.080
2023-01-12T21:10:17.030Z,30.079
2023-01-12T21:15:17.038Z,30.081
2023-01-12T21:20:20.008Z,30.082
2023-01-12T21:25:20.095Z,30.086
2023-01-12T21:30:20.007Z,30.088
2023-01-12T21:35:17.056Z,30.088
2023-01-12T21:40:17.032Z,30.091
2023-01-12T21:45:20.029Z,30.091
2023-01-12T21:50:20.024Z,30.084
2023-01-12T21:55:20.117Z,30.086
2023-01-12T22:00:17.085Z,30.081
2023-01-12T22:05:20.068Z,30.077
2023-01-12T22:10:20.052Z,30.076
2023-01-12T22:15:20.074Z,30.072
2023-01-12T22:20:17.049Z,30.071
2023-01-12T22:25:16.921Z,30.068
2023-01-12T22:30:20.080Z,30.068
2023-01-12T22:35:20.042Z,30.067
2023-01-12T22:40:20.044Z,30.064
2023-01-12T22:45:20.038Z,30.059
2023-01-12T22:50:20.065Z,30.047
2023-01-12T22:55:20.090Z,30.046
2023-01-12T23:00:20.042Z,30.044
2023-01-12T23:05:16.883Z,30.043
2023-01-12T23:10:17.078Z,30.042
2023-01-12T23:15:17.058Z,30.038
2023-01-12T23:20:17.145Z,30.039
2023-01-12T23:25:17.065Z,30.041
2023-01-12T23:30:17.075Z,30.041
2023-01-12T23:35:20.160Z,30.040
2023-01-12T23:40:20.061Z,30.036
2023-01-12T23:45:20.073Z,30.032
2023-01-12T23:50:20.065Z,30.027
2023-01-12T23:55:20.044Z,30.022
